sensor_id;sensor_type;location;lat;lon;timestamp;pressure;altitude;pressure_sealevel;temperature;humidity
35989;BME280;22064;42.672;23.282;2023-05-10T00:02:09;94889.81;;;8.47;100.00
35989;BME280;22064;42.672;23.282;2023-05-10T00:04:35;94898.41;;;8.47;100.00
35989;BME280;22064;42.672;23.282;2023-05-10T00:07:01;94884.19;;;8.38;100.00
35989;BME280;22064;42.672;23.282;2023-05-10T00:09:27;94900.09;;;8.42;100.00
35989;BME280;22064;42.672;23.282;2023-05-10T00:11:53;94890.69;;;8.41;100.00
35989;BME280;22064;42.672;23.282;2023-05-10T00:14:19;94891.28;;;8.43;100.00
35989;BME280;22064;42.672;23.282;2023-05-10T00:16:45;94887.31;;;8.40;100.00
35989;BME280;22064;42.672;23.282;2023-05-10T00:19:11;94879.59;;;8.33;100.00
35989;BME280;22064;42.672;23.282;2023-05-10T00:21:36;94869.41;;;8.20;100.00
35989;BME280;22064;42.672;23.282;2023-05-10T00:24:03;94889.06;;;8.28;100.00
35989;BME280;22064;42.672;23.282;2023-05-10T00:26:28;94893.69;;;8.26;100.00
35989;BME280;22064;42.672;23.282;2023-05-10T00:28:55;94875.25;;;8.16;100.00
35989;BME280;22064;42.672;23.282;2023-05-10T00:31:22;94877.41;;;8.19;100.00
35989;BME280;22064;42.672;23.282;2023-05-10T00:33:49;94870.88;;;8.16;100.00
35989;BME280;22064;42.672;23.282;2023-05-10T00:36:15;94882.84;;;8.17;100.00
35989;BME280;22064;42.672;23.282;2023-05-10T00:38:41;94888.03;;;8.17;100.00
35989;BME280;22064;42.672;23.282;2023-05-10T00:41:07;94880.69;;;8.14;100.00
35989;BME280;22064;42.672;23.282;2023-05-10T00:43:35;94872.56;;;8.10;100.00
35989;BME280;22064;42.672;23.282;2023-05-10T00:46:04;94870.06;;;8.16;100.00
35989;BME280;22064;42.672;23.282;2023-05-10T00:48:30;94869.81;;;8.05;100.00
35989;BME280;22064;42.672;23.282;2023-05-10T00:50:55;94871.03;;;8.03;100.00
35989;BME280;22064;42.672;23.282;2023-05-10T00:53:21;94860.13;;;8.01;100.00
35989;BME280;22064;42.672;23.282;2023-05-10T00:55:47;94859.09;;;8.02;100.00
35989;BME280;22064;42.672;23.282;2023-05-10T00:58:14;94858.31;;;8.01;100.00
35989;BME280;22064;42.672;23.282;2023-05-10T01:00:41;94863.06;;;8.04;100.00
35989;BME280;22064;42.672;23.282;2023-05-10T01:03:10;94851.59;;;7.94;100.00
35989;BME280;22064;42.672;23.282;2023-05-10T01:05:37;94856.34;;;7.97;100.00
35989;BME280;22064;42.672;23.282;2023-05-10T01:08:03;94863.94;;;7.98;100.00
35989;BME280;22064;42.672;23.282;2023-05-10T01:10:30;94861.78;;;7.95;100.00
35989;BME280;22064;42.672;23.282;2023-05-10T01:12:56;94847.66;;;7.91;100.00
35989;BME280;22064;42.672;23.282;2023-05-10T01:15:23;94855.88;;;7.88;100.00
35989;BME280;22064;42.672;23.282;2023-05-10T01:17:49;94855.66;;;7.90;100.00
35989;BME280;22064;42.672;23.282;2023-05-10T01:20:15;94856.44;;;7.90;100.00
35989;BME280;22064;42.672;23.282;2023-05-10T01:22:50;94851.50;;;7.89;100.00
35989;BME280;22064;42.672;23.282;2023-05-10T01:28:08;94839.75;;;7.86;100.00
35989;BME280;22064;42.672;23.282;2023-05-10T01:38:17;94832.75;;;7.86;100.00
35989;BME280;22064;42.672;23.282;2023-05-10T01:43:22;94826.97;;;7.73;100.00
35989;BME280;22064;42.672;23.282;2023-05-10T01:46:02;94824.06;;;7.81;100.00
35989;BME280;22064;42.672;23.282;2023-05-10T01:48:38;94823.94;;;7.76;100.00
35989;BME280;22064;42.672;23.282;2023-05-10T01:51:06;94820.63;;;7.69;100.00
35989;BME280;22064;42.672;23.282;2023-05-10T01:53:35;94809.72;;;7.67;100.00
35989;BME280;22064;42.672;23.282;2023-05-10T01:56:03;94815.31;;;7.63;100.00
35989;BME280;22064;42.672;23.282;2023-05-10T01:58:32;94817.91;;;7.63;100.00
35989;BME280;22064;42.672;23.282;2023-05-10T02:01:01;94808.44;;;7.57;100.00
35989;BME280;22064;42.672;23.282;2023-05-10T02:03:29;94811.81;;;7.58;100.00
35989;BME280;22064;42.672;23.282;2023-05-10T02:05:57;94816.75;;;7.59;100.00
35989;BME280;22064;42.672;23.282;2023-05-10T02:08:23;94817.78;;;7.58;100.00
35989;BME280;22064;42.672;23.282;2023-05-10T02:10:52;94820.38;;;7.58;100.00
35989;BME280;22064;42.672;23.282;2023-05-10T02:13:19;94814.25;;;7.53;100.00
35989;BME280;22064;42.672;23.282;2023-05-10T02:15:48;94817.19;;;7.56;100.00
35989;BME280;22064;42.672;23.282;2023-05-10T02:18:14;94804.53;;;7.48;100.00
35989;BME280;22064;42.672;23.282;2023-05-10T02:20:43;94807.94;;;7.49;100.00
35989;BME280;22064;42.672;23.282;2023-05-10T02:23:11;94820.66;;;7.50;100.00
35989;BME280;22064;42.672;23.282;2023-05-10T02:25:37;94808.09;;;7.35;100.00
35989;BME280;22064;42.672;23.282;2023-05-10T02:28:05;94811.47;;;7.17;100.00
35989;BME280;22064;42.672;23.282;2023-05-10T02:30:33;94806.72;;;7.14;100.00
35989;BME280;22064;42.672;23.282;2023-05-10T02:33:01;94810.16;;;7.08;100.00
35989;BME280;22064;42.672;23.282;2023-05-10T02:35:28;94801.88;;;7.00;100.00
35989;BME280;22064;42.672;23.282;2023-05-10T02:37:56;94814.19;;;6.86;100.00
35989;BME280;22064;42.672;23.282;2023-05-10T02:40:24;94813.75;;;6.89;100.00
35989;BME280;22064;42.672;23.282;2023-05-10T02:42:54;94811.50;;;6.74;100.00
35989;BME280;22064;42.672;23.282;2023-05-10T02:45:25;94804.78;;;6.66;100.00
35989;BME280;22064;42.672;23.282;2023-05-10T02:47:54;94793.94;;;6.58;100.00
35989;BME280;22064;42.672;23.282;2023-05-10T02:50:21;94803.63;;;6.62;100.00
35989;BME280;22064;42.672;23.282;2023-05-10T02:52:50;94815.00;;;6.61;100.00
35989;BME280;22064;42.672;23.282;2023-05-10T02:55:22;94805.69;;;6.54;100.00
35989;BME280;22064;42.672;23.282;2023-05-10T02:57:54;94806.88;;;6.58;100.00
35989;BME280;22064;42.672;23.282;2023-05-10T03:00:24;94803.94;;;6.54;100.00
35989;BME280;22064;42.672;23.282;2023-05-10T03:02:50;94805.06;;;6.58;100.00
35989;BME280;22064;42.672;23.282;2023-05-10T03:05:16;94799.78;;;6.46;100.00
35989;BME280;22064;42.672;23.282;2023-05-10T03:07:43;94806.13;;;6.51;100.00
35989;BME280;22064;42.672;23.282;2023-05-10T03:10:09;94811.22;;;6.57;100.00
35989;BME280;22064;42.672;23.282;2023-05-10T03:18:06;94804.13;;;6.53;100.00
35989;BME280;22064;42.672;23.282;2023-05-10T03:20:42;94807.72;;;6.52;100.00
35989;BME280;22064;42.672;23.282;2023-05-10T03:26:28;94809.22;;;6.59;100.00
35989;BME280;22064;42.672;23.282;2023-05-10T03:29:04;94813.03;;;6.57;100.00
35989;BME280;22064;42.672;23.282;2023-05-10T03:31:31;94819.22;;;6.56;100.00
35989;BME280;22064;42.672;23.282;2023-05-10T03:33:57;94817.00;;;6.59;100.00
35989;BME280;22064;42.672;23.282;2023-05-10T03:36:25;94815.63;;;6.57;100.00
35989;BME280;22064;42.672;23.282;2023-05-10T03:38:51;94808.09;;;6.55;100.00
35989;BME280;22064;42.672;23.282;2023-05-10T03:41:17;94825.34;;;6.61;100.00
35989;BME280;22064;42.672;23.282;2023-05-10T03:43:43;94817.78;;;6.60;100.00
35989;BME280;22064;42.672;23.282;2023-05-10T03:46:09;94818.00;;;6.58;100.00
35989;BME280;22064;42.672;23.282;2023-05-10T03:48:35;94828.06;;;6.66;100.00
35989;BME280;22064;42.672;23.282;2023-05-10T03:51:01;94830.47;;;6.68;100.00
35989;BME280;22064;42.672;23.282;2023-05-10T03:53:27;94831.09;;;6.63;100.00
35989;BME280;22064;42.672;23.282;2023-05-10T03:55:53;94838.22;;;6.68;100.00
35989;BME280;22064;42.672;23.282;2023-05-10T03:58:19;94825.13;;;6.63;100.00
35989;BME280;22064;42.672;23.282;2023-05-10T04:00:45;94836.66;;;6.67;100.00
35989;BME280;22064;42.672;23.282;2023-05-10T04:03:13;94840.97;;;6.73;100.00
35989;BME280;22064;42.672;23.282;2023-05-10T04:05:39;94845.50;;;6.78;100.00
35989;BME280;22064;42.672;23.282;2023-05-10T04:08:05;94842.91;;;6.78;100.00
35989;BME280;22064;42.672;23.282;2023-05-10T04:10:31;94836.16;;;6.77;100.00
35989;BME280;22064;42.672;23.282;2023-05-10T04:12:58;94841.28;;;6.83;100.00
35989;BME280;22064;42.672;23.282;2023-05-10T04:15:23;94845.66;;;6.83;100.00
35989;BME280;22064;42.672;23.282;2023-05-10T04:17:49;94834.38;;;6.77;100.00
35989;BME280;22064;42.672;23.282;2023-05-10T04:20:15;94855.53;;;6.92;100.00
35989;BME280;22064;42.672;23.282;2023-05-10T04:22:41;94845.97;;;6.93;100.00
35989;BME280;22064;42.672;23.282;2023-05-10T04:25:08;94845.31;;;6.79;100.00
35989;BME280;22064;42.672;23.282;2023-05-10T04:27:34;94857.16;;;6.87;100.00
35989;BME280;22064;42.672;23.282;2023-05-10T04:30:00;94835.75;;;6.80;100.00
35989;BME280;22064;42.672;23.282;2023-05-10T04:32:26;94855.25;;;6.82;100.00
35989;BME280;22064;42.672;23.282;2023-05-10T04:34:52;94858.38;;;6.84;100.00
35989;BME280;22064;42.672;23.282;2023-05-10T04:37:18;94857.81;;;6.82;100.00
35989;BME280;22064;42.672;23.282;2023-05-10T04:39:45;94848.47;;;6.81;100.00
35989;BME280;22064;42.672;23.282;2023-05-10T04:42:11;94855.00;;;6.84;100.00
35989;BME280;22064;42.672;23.282;2023-05-10T04:44:37;94858.44;;;6.78;100.00
35989;BME280;22064;42.672;23.282;2023-05-10T04:47:03;94859.09;;;6.91;100.00
35989;BME280;22064;42.672;23.282;2023-05-10T04:49:29;94858.47;;;6.96;100.00
35989;BME280;22064;42.672;23.282;2023-05-10T04:51:55;94851.34;;;6.91;100.00
35989;BME280;22064;42.672;23.282;2023-05-10T04:54:21;94858.06;;;6.99;100.00
35989;BME280;22064;42.672;23.282;2023-05-10T04:56:47;94859.38;;;7.08;100.00
35989;BME280;22064;42.672;23.282;2023-05-10T04:59:13;94856.94;;;7.13;100.00
35989;BME280;22064;42.672;23.282;2023-05-10T05:01:39;94856.94;;;7.13;100.00
35989;BME280;22064;42.672;23.282;2023-05-10T05:04:05;94862.53;;;7.29;100.00
35989;BME280;22064;42.672;23.282;2023-05-10T05:06:32;94850.53;;;7.34;100.00
35989;BME280;22064;42.672;23.282;2023-05-10T05:08:58;94852.75;;;7.31;100.00
35989;BME280;22064;42.672;23.282;2023-05-10T05:11:24;94865.50;;;7.32;100.00
35989;BME280;22064;42.672;23.282;2023-05-10T05:13:51;94868.16;;;7.44;100.00
35989;BME280;22064;42.672;23.282;2023-05-10T05:16:17;94862.25;;;7.37;100.00
35989;BME280;22064;42.672;23.282;2023-05-10T05:18:43;94868.59;;;7.41;100.00
35989;BME280;22064;42.672;23.282;2023-05-10T05:21:16;94864.78;;;7.44;100.00
35989;BME280;22064;42.672;23.282;2023-05-10T05:23:46;94874.06;;;7.51;100.00
35989;BME280;22064;42.672;23.282;2023-05-10T05:26:11;94875.91;;;7.62;100.00
35989;BME280;22064;42.672;23.282;2023-05-10T05:28:38;94874.94;;;7.63;100.00
35989;BME280;22064;42.672;23.282;2023-05-10T05:31:04;94864.13;;;7.48;100.00
35989;BME280;22064;42.672;23.282;2023-05-10T05:33:31;94890.91;;;7.60;100.00
35989;BME280;22064;42.672;23.282;2023-05-10T05:35:57;94894.91;;;7.75;100.00
35989;BME280;22064;42.672;23.282;2023-05-10T05:38:23;94890.53;;;7.75;100.00
35989;BME280;22064;42.672;23.282;2023-05-10T05:40:49;94891.69;;;7.79;100.00
35989;BME280;22064;42.672;23.282;2023-05-10T05:43:15;94893.69;;;7.77;100.00
35989;BME280;22064;42.672;23.282;2023-05-10T05:45:41;94892.91;;;7.77;100.00
35989;BME280;22064;42.672;23.282;2023-05-10T05:48:07;94904.78;;;7.66;100.00
35989;BME280;22064;42.672;23.282;2023-05-10T05:50:32;94903.22;;;7.65;100.00
35989;BME280;22064;42.672;23.282;2023-05-10T05:52:58;94900.03;;;7.63;100.00
35989;BME280;22064;42.672;23.282;2023-05-10T05:55:24;94900.97;;;7.69;100.00
35989;BME280;22064;42.672;23.282;2023-05-10T05:57:51;94902.28;;;7.59;100.00
35989;BME280;22064;42.672;23.282;2023-05-10T06:00:17;94909.91;;;7.54;100.00
35989;BME280;22064;42.672;23.282;2023-05-10T06:02:44;94900.03;;;7.63;100.00
35989;BME280;22064;42.672;23.282;2023-05-10T06:05:10;94914.94;;;7.68;100.00
35989;BME280;22064;42.672;23.282;2023-05-10T06:07:36;94907.53;;;7.71;100.00
35989;BME280;22064;42.672;23.282;2023-05-10T06:10:02;94915.22;;;7.78;100.00
35989;BME280;22064;42.672;23.282;2023-05-10T06:12:28;94914.50;;;7.89;100.00
35989;BME280;22064;42.672;23.282;2023-05-10T06:14:54;94911.25;;;7.75;100.00
35989;BME280;22064;42.672;23.282;2023-05-10T06:17:20;94904.06;;;7.77;100.00
35989;BME280;22064;42.672;23.282;2023-05-10T06:19:47;94919.09;;;7.87;100.00
35989;BME280;22064;42.672;23.282;2023-05-10T06:22:12;94909.88;;;7.91;100.00
35989;BME280;22064;42.672;23.282;2023-05-10T06:24:38;94911.97;;;8.01;100.00
35989;BME280;22064;42.672;23.282;2023-05-10T06:27:05;94929.69;;;8.04;100.00
35989;BME280;22064;42.672;23.282;2023-05-10T06:29:32;94913.69;;;8.07;100.00
35989;BME280;22064;42.672;23.282;2023-05-10T06:31:58;94919.59;;;8.14;100.00
35989;BME280;22064;42.672;23.282;2023-05-10T06:34:24;94914.75;;;8.18;100.00
35989;BME280;22064;42.672;23.282;2023-05-10T06:36:50;94924.00;;;8.25;100.00
35989;BME280;22064;42.672;23.282;2023-05-10T06:39:16;94916.94;;;8.32;100.00
35989;BME280;22064;42.672;23.282;2023-05-10T06:41:42;94920.31;;;8.33;100.00
35989;BME280;22064;42.672;23.282;2023-05-10T06:44:08;94925.38;;;8.28;100.00
35989;BME280;22064;42.672;23.282;2023-05-10T06:46:34;94919.31;;;8.34;100.00
35989;BME280;22064;42.672;23.282;2023-05-10T06:49:00;94921.13;;;8.33;100.00
35989;BME280;22064;42.672;23.282;2023-05-10T06:51:26;94926.25;;;8.40;100.00
35989;BME280;22064;42.672;23.282;2023-05-10T06:53:53;94906.91;;;8.36;100.00
35989;BME280;22064;42.672;23.282;2023-05-10T06:56:18;94932.00;;;8.42;100.00
35989;BME280;22064;42.672;23.282;2023-05-10T06:58:47;94927.59;;;8.43;100.00
35989;BME280;22064;42.672;23.282;2023-05-10T07:01:14;94930.34;;;8.48;100.00
35989;BME280;22064;42.672;23.282;2023-05-10T07:03:40;94922.41;;;8.43;100.00
35989;BME280;22064;42.672;23.282;2023-05-10T07:06:06;94933.31;;;8.33;100.00
35989;BME280;22064;42.672;23.282;2023-05-10T07:08:33;94928.56;;;8.30;100.00
35989;BME280;22064;42.672;23.282;2023-05-10T07:11:03;94933.59;;;8.43;100.00
35989;BME280;22064;42.672;23.282;2023-05-10T07:13:31;94928.19;;;8.45;100.00
35989;BME280;22064;42.672;23.282;2023-05-10T07:15:58;94928.84;;;8.40;100.00
35989;BME280;22064;42.672;23.282;2023-05-10T07:18:25;94940.38;;;8.44;100.00
35989;BME280;22064;42.672;23.282;2023-05-10T07:20:51;94920.97;;;8.28;100.00
35989;BME280;22064;42.672;23.282;2023-05-10T07:23:17;94925.25;;;8.41;100.00
35989;BME280;22064;42.672;23.282;2023-05-10T07:25:46;94938.72;;;8.62;100.00
35989;BME280;22064;42.672;23.282;2023-05-10T07:28:14;94942.00;;;8.69;100.00
35989;BME280;22064;42.672;23.282;2023-05-10T07:30:40;94954.91;;;8.75;100.00
35989;BME280;22064;42.672;23.282;2023-05-10T07:33:08;94946.09;;;8.76;100.00
35989;BME280;22064;42.672;23.282;2023-05-10T07:35:34;94943.91;;;8.62;100.00
35989;BME280;22064;42.672;23.282;2023-05-10T07:38:01;94948.97;;;8.56;100.00
35989;BME280;22064;42.672;23.282;2023-05-10T07:40:28;94947.56;;;8.72;100.00
35989;BME280;22064;42.672;23.282;2023-05-10T07:42:53;94939.59;;;8.55;100.00
35989;BME280;22064;42.672;23.282;2023-05-10T07:45:20;94946.06;;;8.65;100.00
35989;BME280;22064;42.672;23.282;2023-05-10T07:47:45;94951.94;;;8.72;100.00
35989;BME280;22064;42.672;23.282;2023-05-10T07:50:11;94950.06;;;8.79;100.00
35989;BME280;22064;42.672;23.282;2023-05-10T07:52:37;94953.34;;;8.86;100.00
35989;BME280;22064;42.672;23.282;2023-05-10T07:55:03;94942.97;;;8.86;100.00
35989;BME280;22064;42.672;23.282;2023-05-10T07:57:30;94950.28;;;8.77;100.00
35989;BME280;22064;42.672;23.282;2023-05-10T07:59:56;94953.34;;;8.86;100.00
35989;BME280;22064;42.672;23.282;2023-05-10T08:02:22;94944.31;;;8.89;100.00
35989;BME280;22064;42.672;23.282;2023-05-10T08:04:48;94955.75;;;9.11;100.00
35989;BME280;22064;42.672;23.282;2023-05-10T08:07:14;94957.91;;;9.14;100.00
35989;BME280;22064;42.672;23.282;2023-05-10T08:09:39;94956.91;;;9.27;100.00
35989;BME280;22064;42.672;23.282;2023-05-10T08:12:05;94945.59;;;9.21;100.00
35989;BME280;22064;42.672;23.282;2023-05-10T08:14:32;94954.97;;;9.34;100.00
35989;BME280;22064;42.672;23.282;2023-05-10T08:16:57;94956.44;;;9.18;100.00
35989;BME280;22064;42.672;23.282;2023-05-10T08:19:23;94949.56;;;9.36;100.00
35989;BME280;22064;42.672;23.282;2023-05-10T08:21:49;94944.25;;;9.42;100.00
35989;BME280;22064;42.672;23.282;2023-05-10T08:24:15;94957.91;;;9.49;100.00
35989;BME280;22064;42.672;23.282;2023-05-10T08:26:41;94937.81;;;9.57;100.00
35989;BME280;22064;42.672;23.282;2023-05-10T08:29:07;94946.16;;;9.59;100.00
35989;BME280;22064;42.672;23.282;2023-05-10T08:31:32;94949.78;;;9.46;100.00
35989;BME280;22064;42.672;23.282;2023-05-10T08:33:58;94954.88;;;9.41;100.00
35989;BME280;22064;42.672;23.282;2023-05-10T08:36:24;94962.31;;;9.49;100.00
35989;BME280;22064;42.672;23.282;2023-05-10T08:38:50;94951.47;;;9.40;100.00
35989;BME280;22064;42.672;23.282;2023-05-10T08:41:20;94949.44;;;9.31;100.00
35989;BME280;22064;42.672;23.282;2023-05-10T08:43:47;94960.88;;;9.41;100.00
35989;BME280;22064;42.672;23.282;2023-05-10T08:46:18;94961.28;;;9.15;100.00
35989;BME280;22064;42.672;23.282;2023-05-10T08:48:46;94964.56;;;9.22;100.00
35989;BME280;22064;42.672;23.282;2023-05-10T08:51:19;94960.88;;;9.41;100.00
35989;BME280;22064;42.672;23.282;2023-05-10T08:53:48;94961.09;;;9.63;100.00
35989;BME280;22064;42.672;23.282;2023-05-10T08:56:15;94956.09;;;9.62;100.00
35989;BME280;22064;42.672;23.282;2023-05-10T08:58:41;94956.53;;;9.82;100.00
35989;BME280;22064;42.672;23.282;2023-05-10T09:01:08;94957.53;;;9.93;100.00
35989;BME280;22064;42.672;23.282;2023-05-10T09:03:35;94967.94;;;9.93;100.00
35989;BME280;22064;42.672;23.282;2023-05-10T09:06:01;94953.94;;;9.82;100.00
35989;BME280;22064;42.672;23.282;2023-05-10T09:08:27;94964.34;;;9.82;100.00
35989;BME280;22064;42.672;23.282;2023-05-10T09:10:54;94966.81;;;9.89;100.00
35989;BME280;22064;42.672;23.282;2023-05-10T09:13:24;94956.72;;;9.92;100.00
35989;BME280;22064;42.672;23.282;2023-05-10T09:15:51;94954.38;;;9.91;100.00
35989;BME280;22064;42.672;23.282;2023-05-10T09:18:18;94969.94;;;10.03;100.00
35989;BME280;22064;42.672;23.282;2023-05-10T09:20:44;94954.84;;;9.88;100.00
35989;BME280;22064;42.672;23.282;2023-05-10T09:23:11;94954.84;;;9.88;100.00
35989;BME280;22064;42.672;23.282;2023-05-10T09:25:37;94950.22;;;9.78;100.00
35989;BME280;22064;42.672;23.282;2023-05-10T09:28:08;94948.16;;;9.80;100.00
35989;BME280;22064;42.672;23.282;2023-05-10T09:30:35;94951.28;;;10.06;100.00
35989;BME280;22064;42.672;23.282;2023-05-10T09:33:01;94949.03;;;9.98;100.00
35989;BME280;22064;42.672;23.282;2023-05-10T09:35:29;94951.66;;;9.86;100.00
35989;BME280;22064;42.672;23.282;2023-05-10T09:37:57;94958.75;;;9.90;100.00
35989;BME280;22064;42.672;23.282;2023-05-10T09:40:25;94949.19;;;9.79;100.00
35989;BME280;22064;42.672;23.282;2023-05-10T09:42:56;94950.75;;;9.80;100.00
35989;BME280;22064;42.672;23.282;2023-05-10T09:45:24;94943.66;;;9.76;100.00
35989;BME280;22064;42.672;23.282;2023-05-10T09:47:50;94950.88;;;9.85;100.00
35989;BME280;22064;42.672;23.282;2023-05-10T09:50:16;94953.69;;;9.84;100.00
35989;BME280;22064;42.672;23.282;2023-05-10T09:52:59;94948.59;;;10.01;100.00
35989;BME280;22064;42.672;23.282;2023-05-10T09:58:04;94942.13;;;10.03;100.00
35989;BME280;22064;42.672;23.282;2023-05-10T10:00:40;94939.47;;;10.15;100.00
35989;BME280;22064;42.672;23.282;2023-05-10T10:03:12;94945.69;;;10.37;100.00
35989;BME280;22064;42.672;23.282;2023-05-10T10:05:40;94943.84;;;10.67;100.00
35989;BME280;22064;42.672;23.282;2023-05-10T10:08:07;94929.38;;;10.59;100.00
35989;BME280;22064;42.672;23.282;2023-05-10T10:10:33;94936.22;;;10.48;100.00
35989;BME280;22064;42.672;23.282;2023-05-10T10:13:00;94930.56;;;10.68;100.00
35989;BME280;22064;42.672;23.282;2023-05-10T10:15:26;94932.00;;;10.76;100.00
35989;BME280;22064;42.672;23.282;2023-05-10T10:17:53;94918.84;;;10.66;100.00
35989;BME280;22064;42.672;23.282;2023-05-10T10:20:22;94929.56;;;10.69;100.00
35989;BME280;22064;42.672;23.282;2023-05-10T10:22:48;94931.44;;;10.74;100.00
35989;BME280;22064;42.672;23.282;2023-05-10T10:25:16;94934.78;;;10.69;100.00
35989;BME280;22064;42.672;23.282;2023-05-10T10:28:26;94938.25;;;10.75;100.00
35989;BME280;22064;42.672;23.282;2023-05-10T10:30:48;94924.03;;;10.82;100.00
35989;BME280;22064;42.672;23.282;2023-05-10T10:33:36;94933.19;;;11.02;100.00
35989;BME280;22064;42.672;23.282;2023-05-10T10:36:04;94936.53;;;10.97;100.00
35989;BME280;22064;42.672;23.282;2023-05-10T10:41:48;94935.19;;;10.78;100.00
35989;BME280;22064;42.672;23.282;2023-05-10T10:47:06;94936.66;;;10.74;100.00
35989;BME280;22064;42.672;23.282;2023-05-10T10:57:57;94935.38;;;10.59;100.00
35989;BME280;22064;42.672;23.282;2023-05-10T11:00:31;94932.13;;;10.52;100.00
35989;BME280;22064;42.672;23.282;2023-05-10T11:05:34;94942.59;;;10.69;100.00
35989;BME280;22064;42.672;23.282;2023-05-10T11:08:08;94940.44;;;10.66;100.00
35989;BME280;22064;42.672;23.282;2023-05-10T11:10:34;94934.78;;;10.69;100.00
35989;BME280;22064;42.672;23.282;2023-05-10T11:13:02;94935.31;;;10.71;100.00
35989;BME280;22064;42.672;23.282;2023-05-10T11:15:33;94932.56;;;10.95;100.00
35989;BME280;22064;42.672;23.282;2023-05-10T11:17:59;94936.06;;;11.00;100.00
35989;BME280;22064;42.672;23.282;2023-05-10T11:20:28;94928.97;;;11.13;100.00
35989;BME280;22064;42.672;23.282;2023-05-10T11:23:12;94934.63;;;11.09;100.00
35989;BME280;22064;42.672;23.282;2023-05-10T11:25:42;94936.59;;;11.02;100.00
35989;BME280;22064;42.672;23.282;2023-05-10T11:28:14;94933.09;;;11.30;100.00
35989;BME280;22064;42.672;23.282;2023-05-10T11:30:43;94933.94;;;11.31;100.00
35989;BME280;22064;42.672;23.282;2023-05-10T11:33:15;94935.09;;;11.23;100.00
35989;BME280;22064;42.672;23.282;2023-05-10T11:35:42;94928.84;;;11.24;100.00
35989;BME280;22064;42.672;23.282;2023-05-10T11:38:09;94917.75;;;11.12;100.00
35989;BME280;22064;42.672;23.282;2023-05-10T11:40:36;94935.44;;;11.10;100.00
35989;BME280;22064;42.672;23.282;2023-05-10T11:43:03;94930.84;;;11.17;100.00
35989;BME280;22064;42.672;23.282;2023-05-10T11:45:32;94916.16;;;10.94;100.00
35989;BME280;22064;42.672;23.282;2023-05-10T11:47:59;94933.06;;;10.75;100.00
35989;BME280;22064;42.672;23.282;2023-05-10T11:50:25;94924.09;;;10.71;100.00
35989;BME280;22064;42.672;23.282;2023-05-10T11:52:55;94927.97;;;10.68;100.00
35989;BME280;22064;42.672;23.282;2023-05-10T11:55:22;94911.59;;;10.84;100.00
35989;BME280;22064;42.672;23.282;2023-05-10T11:57:54;94922.22;;;10.83;100.00
35989;BME280;22064;42.672;23.282;2023-05-10T12:00:21;94928.16;;;10.95;100.00
35989;BME280;22064;42.672;23.282;2023-05-10T12:02:48;94932.41;;;11.18;100.00
35989;BME280;22064;42.672;23.282;2023-05-10T12:05:14;94924.59;;;11.18;100.00
35989;BME280;22064;42.672;23.282;2023-05-10T12:07:40;94923.31;;;11.38;100.00
35989;BME280;22064;42.672;23.282;2023-05-10T12:10:08;94926.72;;;11.38;100.00
35989;BME280;22064;42.672;23.282;2023-05-10T12:12:38;94914.47;;;11.39;100.00
35989;BME280;22064;42.672;23.282;2023-05-10T12:15:06;94910.28;;;11.38;100.00
35989;BME280;22064;42.672;23.282;2023-05-10T12:17:37;94906.56;;;11.33;100.00
35989;BME280;22064;42.672;23.282;2023-05-10T12:20:27;94908.22;;;11.40;100.00
35989;BME280;22064;42.672;23.282;2023-05-10T12:22:55;94913.50;;;11.45;100.00
35989;BME280;22064;42.672;23.282;2023-05-10T12:25:23;94913.59;;;11.50;100.00
35989;BME280;22064;42.672;23.282;2023-05-10T12:27:55;94917.66;;;11.63;100.00
35989;BME280;22064;42.672;23.282;2023-05-10T12:32:48;94897.47;;;11.36;100.00
35989;BME280;22064;42.672;23.282;2023-05-10T12:35:14;94906.78;;;11.49;100.00
35989;BME280;22064;42.672;23.282;2023-05-10T12:37:44;94900.28;;;11.51;100.00
35989;BME280;22064;42.672;23.282;2023-05-10T12:40:11;94906.72;;;11.44;100.00
35989;BME280;22064;42.672;23.282;2023-05-10T12:42:38;94882.00;;;11.29;100.00
35989;BME280;22064;42.672;23.282;2023-05-10T12:45:05;94904.59;;;11.41;100.00
35989;BME280;22064;42.672;23.282;2023-05-10T12:47:32;94897.03;;;11.22;100.00
35989;BME280;22064;42.672;23.282;2023-05-10T12:50:00;94895.13;;;11.35;100.00
35989;BME280;22064;42.672;23.282;2023-05-10T12:52:27;94897.31;;;11.43;100.00
35989;BME280;22064;42.672;23.282;2023-05-10T12:54:53;94888.34;;;11.55;100.00
35989;BME280;22064;42.672;23.282;2023-05-10T12:57:22;94894.84;;;11.53;100.00
35989;BME280;22064;42.672;23.282;2023-05-10T12:59:48;94892.91;;;11.43;100.00
35989;BME280;22064;42.672;23.282;2023-05-10T13:02:15;94886.78;;;11.54;100.00
35989;BME280;22064;42.672;23.282;2023-05-10T13:04:44;94884.63;;;11.29;100.00
35989;BME280;22064;42.672;23.282;2023-05-10T13:07:10;94889.91;;;11.35;100.00
35989;BME280;22064;42.672;23.282;2023-05-10T13:09:36;94864.63;;;11.18;100.00
35989;BME280;22064;42.672;23.282;2023-05-10T13:12:02;94878.84;;;11.27;100.00
35989;BME280;22064;42.672;23.282;2023-05-10T13:14:29;94879.44;;;11.51;100.00
35989;BME280;22064;42.672;23.282;2023-05-10T13:16:55;94869.06;;;11.35;100.00
35989;BME280;22064;42.672;23.282;2023-05-10T13:19:21;94861.34;;;11.23;100.00
35989;BME280;22064;42.672;23.282;2023-05-10T13:21:47;94862.13;;;11.23;100.00
35989;BME280;22064;42.672;23.282;2023-05-10T13:24:13;94863.06;;;11.17;100.00
35989;BME280;22064;42.672;23.282;2023-05-10T13:26:40;94851.91;;;11.00;100.00
35989;BME280;22064;42.672;23.282;2023-05-10T13:29:06;94861.75;;;10.98;100.00
35989;BME280;22064;42.672;23.282;2023-05-10T13:31:33;94860.63;;;11.10;100.00
35989;BME280;22064;42.672;23.282;2023-05-10T13:33:59;94857.47;;;11.08;100.00